createdAt,value
2019-06-19T00:02:03.180Z,10.63
2019-06-19T00:04:33.058Z,10.30
2019-06-19T00:07:03.483Z,10.57
2019-06-19T00:09:33.632Z,11.67
2019-06-19T00:12:03.470Z,11.13
2019-06-19T00:14:34.223Z,11.40
2019-06-19T00:17:04.072Z,11.37
2019-06-19T00:19:36.853Z,11.70
2019-06-19T00:22:04.968Z,12.20
2019-06-19T00:24:34.537Z,11.30
2019-06-19T00:27:04.044Z,11.30
2019-06-19T00:29:40.205Z,11.97
2019-06-19T00:32:24.277Z,11.17
2019-06-19T00:35:06.802Z,11.33
2019-06-19T00:37:36.449Z,11.43
2019-06-19T00:40:20.826Z,10.90
2019-06-19T00:42:51.588Z,11.07
2019-06-19T00:45:21.545Z,11.70
2019-06-19T00:47:51.479Z,11.87
2019-06-19T00:50:21.829Z,11.47
2019-06-19T00:52:51.829Z,12.00
2019-06-19T00:55:36.525Z,11.90
2019-06-19T00:58:06.852Z,12.13
2019-06-19T01:00:36.595Z,11.00
2019-06-19T01:03:06.302Z,11.83
2019-06-19T01:05:35.845Z,12.90
2019-06-19T01:08:05.498Z,11.93
2019-06-19T01:10:35.159Z,11.23
2019-06-19T01:13:04.773Z,11.27
2019-06-19T01:15:34.506Z,11.67
2019-06-19T01:18:04.361Z,12.23
2019-06-19T01:20:34.036Z,13.00
2019-06-19T01:23:03.655Z,11.40
2019-06-19T01:25:33.260Z,11.77
2019-06-19T01:28:02.841Z,11.77
2019-06-19T01:30:32.557Z,11.57
2019-06-19T01:33:02.214Z,11.90
2019-06-19T01:35:32.020Z,11.60
2019-06-19T01:38:01.938Z,11.80
2019-06-19T01:40:32.244Z,11.87
2019-06-19T01:43:02.498Z,11.27
2019-06-19T01:45:32.204Z,12.30
2019-06-19T01:48:01.852Z,11.33
2019-06-19T01:50:31.475Z,10.83
2019-06-19T01:53:55.692Z,10.43
2019-06-19T01:56:25.298Z,11.40
2019-06-19T01:58:54.858Z,12.27
2019-06-19T02:01:24.778Z,12.30
2019-06-19T02:04:13.781Z,13.30
2019-06-19T02:06:43.466Z,12.27
2019-06-19T02:09:13.122Z,12.50
2019-06-19T02:11:42.711Z,13.27
2019-06-19T02:14:12.422Z,11.53
2019-06-19T02:16:42.049Z,12.23
2019-06-19T02:19:11.746Z,12.67
2019-06-19T02:21:43.971Z,11.97
2019-06-19T02:24:13.577Z,13.10
2019-06-19T02:26:43.183Z,13.37
2019-06-19T02:29:12.782Z,13.10
2019-06-19T02:31:42.695Z,11.83
2019-06-19T02:34:13.083Z,12.57
2019-06-19T02:36:43.730Z,12.13
2019-06-19T02:39:13.612Z,12.67
2019-06-19T02:41:43.251Z,12.10
2019-06-19T02:44:14.440Z,12.77
2019-06-19T02:46:44.733Z,11.40
2019-06-19T02:49:14.384Z,11.97
2019-06-19T02:51:44.080Z,10.80
2019-06-19T02:54:14.313Z,11.40
2019-06-19T02:56:43.965Z,11.07
2019-06-19T02:59:13.683Z,11.37
2019-06-19T03:01:43.405Z,11.90
2019-06-19T03:04:15.195Z,11.40
2019-06-19T03:06:44.272Z,10.60
2019-06-19T03:09:13.881Z,11.20
2019-06-19T03:11:43.524Z,11.53
2019-06-19T03:14:13.057Z,10.83
2019-06-19T03:16:42.976Z,11.07
2019-06-19T03:19:12.560Z,10.53
2019-06-19T03:21:42.100Z,11.00
2019-06-19T03:24:11.621Z,10.70
2019-06-19T03:26:41.219Z,10.40
2019-06-19T03:29:10.906Z,9.60
2019-06-19T03:31:40.502Z,9.63
2019-06-19T03:34:10.061Z,10.10
2019-06-19T03:36:39.653Z,9.83
2019-06-19T03:39:09.249Z,11.00
2019-06-19T03:41:38.780Z,10.10
2019-06-19T03:44:08.386Z,10.50
2019-06-19T03:46:38.380Z,9.87
2019-06-19T03:49:07.898Z,9.00
2019-06-19T03:51:43.392Z,10.40
2019-06-19T03:54:12.904Z,9.63
2019-06-19T03:56:42.485Z,9.77
2019-06-19T03:59:12.104Z,9.77
2019-06-19T04:01:49.287Z,9.90
2019-06-19T04:04:13.431Z,9.20
2019-06-19T04:06:43.039Z,8.70
2019-06-19T04:09:12.579Z,9.70
2019-06-19T04:11:42.109Z,9.10
2019-06-19T04:14:12.922Z,9.30
2019-06-19T04:16:42.500Z,8.47
2019-06-19T04:19:12.077Z,9.30
2019-06-19T04:21:41.626Z,8.70
2019-06-19T04:24:11.295Z,8.90
2019-06-19T04:26:41.434Z,8.40
2019-06-19T04:29:25.707Z,9.10
2019-06-19T04:32:05.938Z,9.63
2019-06-19T04:34:26.536Z,7.90
2019-06-19T04:36:56.245Z,8.30
2019-06-19T04:39:25.853Z,8.67
2019-06-19T04:41:55.462Z,8.60
2019-06-19T04:44:26.957Z,8.63
2019-06-19T04:46:56.596Z,8.70
2019-06-19T04:49:26.223Z,8.40
2019-06-19T04:51:55.908Z,7.97
2019-06-19T04:54:25.551Z,8.00
2019-06-19T04:56:55.170Z,8.10
2019-06-19T04:59:24.943Z,8.17
2019-06-19T05:01:54.780Z,9.00
2019-06-19T05:04:24.444Z,7.20
2019-06-19T05:06:55.184Z,7.80
2019-06-19T05:09:24.831Z,7.43
2019-06-19T05:11:54.394Z,8.00
2019-06-19T05:14:23.936Z,7.97
2019-06-19T05:16:53.562Z,7.80
2019-06-19T05:19:23.074Z,7.10
2019-06-19T05:21:52.710Z,7.17
2019-06-19T05:24:22.216Z,6.70
2019-06-19T05:26:51.758Z,7.53
2019-06-19T05:29:21.443Z,7.53
2019-06-19T05:31:51.399Z,7.20
2019-06-19T05:34:20.993Z,7.27
2019-06-19T05:36:50.624Z,8.60
2019-06-19T05:39:20.164Z,7.77
2019-06-19T05:41:49.678Z,7.27
2019-06-19T05:44:19.362Z,6.47
2019-06-19T05:46:49.034Z,7.60
2019-06-19T05:49:18.912Z,6.77
2019-06-19T05:51:49.156Z,6.70
2019-06-19T05:54:18.768Z,6.63
2019-06-19T05:56:48.382Z,6.73
2019-06-19T05:59:19.494Z,6.47
2019-06-19T06:01:49.165Z,7.33
2019-06-19T06:04:18.879Z,6.40
2019-06-19T06:06:48.648Z,7.20
2019-06-19T06:09:18.264Z,6.73
2019-06-19T06:11:47.883Z,6.60
2019-06-19T06:14:17.727Z,6.57
2019-06-19T06:16:47.265Z,6.30
2019-06-19T06:19:16.760Z,6.13
2019-06-19T06:21:47.942Z,6.37
2019-06-19T06:24:17.628Z,6.30
2019-06-19T06:26:47.694Z,6.73
2019-06-19T06:29:17.443Z,6.87
2019-06-19T06:31:47.043Z,6.10
2019-06-19T06:34:16.830Z,6.57
2019-06-19T06:36:46.827Z,6.97
2019-06-19T06:39:16.491Z,6.27
2019-06-19T06:41:46.065Z,5.97
2019-06-19T06:44:15.727Z,6.07
2019-06-19T06:46:45.255Z,6.40
2019-06-19T06:49:14.891Z,5.73
2019-06-19T06:51:44.517Z,5.70
2019-06-19T06:54:14.120Z,5.30
2019-06-19T06:56:43.788Z,5.57
2019-06-19T06:59:14.382Z,5.90
2019-06-19T07:01:43.973Z,6.03
2019-06-19T07:04:13.653Z,5.80
2019-06-19T07:06:43.190Z,5.70
2019-06-19T07:09:12.784Z,5.93
2019-06-19T07:11:42.310Z,5.63
2019-06-19T07:14:11.845Z,5.10
2019-06-19T07:16:41.507Z,5.47
2019-06-19T07:19:11.108Z,5.87
2019-06-19T07:21:40.858Z,5.93
2019-06-19T07:24:10.371Z,5.73
2019-06-19T07:26:52.185Z,6.60
2019-06-19T07:29:11.328Z,5.60
2019-06-19T07:31:41.016Z,5.93
2019-06-19T07:34:10.622Z,5.93
2019-06-19T07:36:40.155Z,5.53
2019-06-19T07:39:09.681Z,6.53
2019-06-19T07:41:39.251Z,5.90
2019-06-19T07:44:09.205Z,5.20
2019-06-19T07:46:38.725Z,5.67
2019-06-19T07:49:08.389Z,5.17
2019-06-19T07:51:38.016Z,5.50
2019-06-19T07:54:07.516Z,4.83
2019-06-19T07:56:37.023Z,6.10
2019-06-19T07:59:06.768Z,5.73
2019-06-19T08:01:36.383Z,5.70
2019-06-19T08:04:05.971Z,5.40
2019-06-19T08:06:36.560Z,4.97
2019-06-19T08:09:07.926Z,5.00
2019-06-19T08:11:37.517Z,4.30
2019-06-19T08:14:07.236Z,5.20
2019-06-19T08:16:36.901Z,5.07
2019-06-19T08:19:06.567Z,4.90
2019-06-19T08:21:36.842Z,4.73
2019-06-19T08:24:06.648Z,4.90
2019-06-19T08:26:36.213Z,4.30
2019-06-19T08:29:06.054Z,4.83
2019-06-19T08:31:35.596Z,4.60
2019-06-19T08:34:14.416Z,5.70
2019-06-19T08:36:36.580Z,4.60
2019-06-19T08:39:08.539Z,4.87
2019-06-19T08:41:38.309Z,5.07
2019-06-19T08:44:09.064Z,4.87
2019-06-19T08:46:38.594Z,4.50
2019-06-19T08:49:08.240Z,5.10
2019-06-19T08:51:37.799Z,4.80
2019-06-19T08:54:07.418Z,4.70
2019-06-19T08:56:37.024Z,4.10
2019-06-19T08:59:06.746Z,4.60
2019-06-19T09:01:36.406Z,4.50
2019-06-19T09:04:06.144Z,4.63
2019-06-19T09:06:37.861Z,4.70
2019-06-19T09:09:10.611Z,4.20
2019-06-19T09:11:41.835Z,4.40
2019-06-19T09:14:11.357Z,4.50
2019-06-19T09:16:41.081Z,4.30
2019-06-19T09:19:10.591Z,3.87
2019-06-19T09:21:40.323Z,4.93
2019-06-19T09:24:09.869Z,4.90
2019-06-19T09:26:39.555Z,4.40
2019-06-19T09:29:09.388Z,4.47
2019-06-19T09:31:41.522Z,3.87
2019-06-19T09:34:11.060Z,4.57
2019-06-19T09:36:40.969Z,4.47
2019-06-19T09:39:10.679Z,4.27
2019-06-19T09:41:40.231Z,4.43
2019-06-19T09:44:09.811Z,4.17
2019-06-19T09:46:39.456Z,4.43
2019-06-19T09:49:09.542Z,4.60
2019-06-19T09:51:39.205Z,3.67
2019-06-19T09:54:08.828Z,4.17
2019-06-19T09:56:38.395Z,5.03
2019-06-19T09:59:07.990Z,4.83
2019-06-19T10:01:37.504Z,3.90
2019-06-19T10:04:07.450Z,4.47
2019-06-19T10:06:37.790Z,4.20
2019-06-19T10:09:09.401Z,4.47
2019-06-19T10:11:38.983Z,4.67
2019-06-19T10:14:09.064Z,4.40
2019-06-19T10:16:38.723Z,4.50
2019-06-19T10:19:08.438Z,4.40
2019-06-19T10:21:38.050Z,5.47
2019-06-19T10:24:07.570Z,5.00
2019-06-19T10:26:37.085Z,4.43
2019-06-19T10:29:06.846Z,4.63
2019-06-19T10:31:36.432Z,4.40
2019-06-19T10:34:06.221Z,5.13
2019-06-19T10:36:36.090Z,5.13
2019-06-19T10:39:08.115Z,4.73
2019-06-19T10:41:37.722Z,5.20
2019-06-19T10:44:07.432Z,4.37
2019-06-19T10:46:41.745Z,4.43
2019-06-19T10:49:08.367Z,4.50
2019-06-19T10:51:41.526Z,5.10
2019-06-19T10:54:11.089Z,5.50
2019-06-19T10:56:43.378Z,5.40
2019-06-19T10:59:12.935Z,4.10
2019-06-19T11:01:42.533Z,4.40
2019-06-19T11:04:12.150Z,4.47
2019-06-19T11:06:42.674Z,4.40
2019-06-19T11:09:12.506Z,3.93
2019-06-19T11:11:42.200Z,4.87
2019-06-19T11:14:11.768Z,4.90
2019-06-19T11:16:41.296Z,4.50
2019-06-19T11:19:10.832Z,4.30
2019-06-19T11:21:40.512Z,4.50
2019-06-19T11:24:10.093Z,5.60
2019-06-19T11:26:39.585Z,4.77
2019-06-19T11:29:10.007Z,4.77
2019-06-19T11:31:39.974Z,4.70
2019-06-19T11:34:09.546Z,4.50
2019-06-19T11:36:39.162Z,4.70
2019-06-19T11:39:09.714Z,4.53
2019-06-19T11:41:39.341Z,4.23
2019-06-19T11:44:08.956Z,4.33
2019-06-19T11:46:38.604Z,4.40
2019-06-19T11:49:08.188Z,4.57
2019-06-19T11:51:38.269Z,4.50
2019-06-19T11:54:07.946Z,4.57
2019-06-19T11:56:37.600Z,5.30
2019-06-19T11:59:08.294Z,4.43
2019-06-19T12:01:37.839Z,4.70
2019-06-19T12:04:07.386Z,3.87
2019-06-19T12:06:37.154Z,4.80
2019-06-19T12:09:09.346Z,4.60
2019-06-19T12:11:39.132Z,4.63
2019-06-19T12:14:18.076Z,4.53
2019-06-19T12:16:40.497Z,4.80
2019-06-19T12:19:10.049Z,4.40
2019-06-19T12:21:39.672Z,4.00
2019-06-19T12:24:09.338Z,4.80
2019-06-19T12:26:39.142Z,4.40
2019-06-19T12:29:09.017Z,4.10
2019-06-19T12:31:38.784Z,4.70
2019-06-19T12:34:08.540Z,4.00
2019-06-19T12:36:38.179Z,4.23
2019-06-19T12:39:10.117Z,4.20
2019-06-19T12:41:39.712Z,4.03
2019-06-19T12:44:09.324Z,4.47
2019-06-19T12:46:39.075Z,4.40
2019-06-19T12:49:08.653Z,3.93
2019-06-19T12:51:38.214Z,3.80
2019-06-19T12:54:07.750Z,4.20
2019-06-19T12:56:37.261Z,3.83
2019-06-19T12:59:07.002Z,3.77
2019-06-19T13:01:36.580Z,4.60
2019-06-19T13:04:06.315Z,4.57
2019-06-19T13:06:46.670Z,3.90
2019-06-19T13:09:08.968Z,4.37
2019-06-19T13:11:38.483Z,4.30
2019-06-19T13:14:08.290Z,4.27
2019-06-19T13:16:37.920Z,3.40
2019-06-19T13:19:07.626Z,4.87
2019-06-19T13:21:37.459Z,4.03
2019-06-19T13:24:07.234Z,4.50
2019-06-19T13:26:36.825Z,4.57
2019-06-19T13:29:07.421Z,4.60
2019-06-19T13:31:37.013Z,4.00
2019-06-19T13:34:06.658Z,4.13
2019-06-19T13:36:36.509Z,4.40
2019-06-19T13:39:08.602Z,3.80
2019-06-19T13:41:38.289Z,4.67
2019-06-19T13:44:07.910Z,4.60
2019-06-19T13:46:37.498Z,3.90
2019-06-19T13:49:07.087Z,4.43
2019-06-19T13:51:36.634Z,4.07
2019-06-19T13:54:06.490Z,4.17
2019-06-19T13:56:36.296Z,4.70
2019-06-19T13:59:06.529Z,3.93
2019-06-19T14:01:36.049Z,3.70
2019-06-19T14:04:05.723Z,3.97
2019-06-19T14:06:35.407Z,4.10
2019-06-19T14:09:06.497Z,3.70
2019-06-19T14:11:36.158Z,3.67
2019-06-19T14:14:06.608Z,3.60
2019-06-19T14:16:36.146Z,3.80
2019-06-19T14:19:05.804Z,3.47
2019-06-19T14:21:35.637Z,3.80
2019-06-19T14:24:05.293Z,3.60
2019-06-19T14:26:34.959Z,4.13
2019-06-19T14:29:04.725Z,3.20
2019-06-19T14:31:34.290Z,3.87
2019-06-19T14:34:03.902Z,3.60
2019-06-19T14:36:33.517Z,3.53
2019-06-19T14:39:03.539Z,4.40
2019-06-19T14:41:33.127Z,3.70
2019-06-19T14:44:02.966Z,3.10
2019-06-19T14:46:32.768Z,3.63
2019-06-19T14:49:02.384Z,3.73
2019-06-19T14:51:31.991Z,3.03
2019-06-19T14:54:01.497Z,3.63
2019-06-19T14:56:31.057Z,3.73
2019-06-19T14:59:00.635Z,3.43
2019-06-19T15:01:30.157Z,4.03
2019-06-19T15:03:59.683Z,3.50
2019-06-19T15:06:29.520Z,3.97
2019-06-19T15:08:59.069Z,3.70
2019-06-19T15:11:28.587Z,3.77
2019-06-19T15:13:58.168Z,3.40
2019-06-19T15:16:27.830Z,3.57
2019-06-19T15:18:57.376Z,3.30
2019-06-19T15:21:27.003Z,3.50
2019-06-19T15:23:56.590Z,3.57
2019-06-19T15:26:26.166Z,3.90
2019-06-19T15:28:56.182Z,4.00
2019-06-19T15:31:25.720Z,3.73
2019-06-19T15:33:55.234Z,4.03
2019-06-19T15:36:24.922Z,3.80
2019-06-19T15:38:54.449Z,5.17
2019-06-19T15:41:23.952Z,4.90
2019-06-19T15:43:54.084Z,3.70
2019-06-19T15:46:28.050Z,4.90
2019-06-19T15:48:55.036Z,4.83
2019-06-19T15:51:24.955Z,4.87
2019-06-19T15:53:54.571Z,5.10
2019-06-19T15:56:24.124Z,4.93
2019-06-19T15:58:53.684Z,5.60
2019-06-19T16:01:23.718Z,5.70
2019-06-19T16:03:53.812Z,6.03
2019-06-19T16:06:23.362Z,5.70
2019-06-19T16:08:52.900Z,5.87
2019-06-19T16:11:22.419Z,6.20
2019-06-19T16:13:54.946Z,5.73
2019-06-19T16:16:24.461Z,5.67
2019-06-19T16:18:54.055Z,4.73
2019-06-19T16:21:23.757Z,5.13
2019-06-19T16:23:53.719Z,5.57
2019-06-19T16:26:25.161Z,5.23
2019-06-19T16:28:54.681Z,5.77
2019-06-19T16:31:24.292Z,6.23
2019-06-19T16:33:53.830Z,5.37
2019-06-19T16:36:23.900Z,5.63
2019-06-19T16:38:53.565Z,6.30
2019-06-19T16:41:23.165Z,5.50
2019-06-19T16:43:52.706Z,4.60
2019-06-19T16:46:22.287Z,3.80
2019-06-19T16:48:54.367Z,3.97
2019-06-19T16:51:23.972Z,3.47
2019-06-19T16:53:53.575Z,3.23
2019-06-19T16:56:23.329Z,3.00
2019-06-19T16:58:52.910Z,2.67
2019-06-19T17:01:22.446Z,3.00
2019-06-19T17:03:51.992Z,2.97
2019-06-19T17:06:21.569Z,2.90
2019-06-19T17:09:03.889Z,3.40
2019-06-19T17:11:22.916Z,2.90
2019-06-19T17:13:52.728Z,3.20
2019-06-19T17:16:22.243Z,3.00
2019-06-19T17:18:51.803Z,2.63
2019-06-19T17:21:21.751Z,2.53
2019-06-19T17:23:51.357Z,3.20
2019-06-19T17:26:20.928Z,3.60
2019-06-19T17:28:50.678Z,3.17
2019-06-19T17:31:20.420Z,3.50
2019-06-19T17:33:49.995Z,3.80
2019-06-19T17:36:20.078Z,7.37
2019-06-19T17:38:49.726Z,5.00
2019-06-19T17:41:19.590Z,4.43
2019-06-19T17:43:49.485Z,3.33
2019-06-19T17:46:19.091Z,3.80
2019-06-19T17:48:48.810Z,4.10
2019-06-19T17:51:18.505Z,3.80
2019-06-19T17:53:48.077Z,4.20
2019-06-19T17:56:17.620Z,4.10
2019-06-19T17:58:47.435Z,3.47
2019-06-19T18:01:16.951Z,3.93
2019-06-19T18:03:46.553Z,4.60
2019-06-19T18:06:16.336Z,3.60
2019-06-19T18:08:45.862Z,3.63
2019-06-19T18:11:16.051Z,3.37
2019-06-19T18:14:06.373Z,4.00
2019-06-19T18:16:37.171Z,4.30
2019-06-19T18:19:07.029Z,4.20
2019-06-19T18:21:36.762Z,4.33
2019-06-19T18:24:06.467Z,4.80
2019-06-19T18:26:36.161Z,4.30
2019-06-19T18:29:05.868Z,3.67
2019-06-19T18:31:35.596Z,3.47
2019-06-19T18:34:06.114Z,3.77
2019-06-19T18:36:35.628Z,3.53
2019-06-19T18:39:08.151Z,3.90
2019-06-19T18:41:37.891Z,4.27
2019-06-19T18:44:07.668Z,3.67
2019-06-19T18:46:37.240Z,3.50
2019-06-19T18:49:06.850Z,4.00
2019-06-19T18:51:36.461Z,3.80
2019-06-19T18:54:06.087Z,4.00
2019-06-19T18:56:35.737Z,4.30
2019-06-19T18:59:05.349Z,4.20
2019-06-19T19:01:34.923Z,3.87
2019-06-19T19:04:04.610Z,3.73
2019-06-19T19:06:34.789Z,4.37
2019-06-19T19:09:06.167Z,3.90
2019-06-19T19:11:35.882Z,3.20
2019-06-19T19:14:05.987Z,3.37
2019-06-19T19:16:35.504Z,3.47
2019-06-19T19:19:05.580Z,3.10
2019-06-19T19:21:35.216Z,3.30
2019-06-19T19:24:04.863Z,3.63
2019-06-19T19:26:34.748Z,3.50
2019-06-19T19:29:05.047Z,3.70
2019-06-19T19:31:34.640Z,3.73
2019-06-19T19:34:04.357Z,3.37
2019-06-19T19:36:34.010Z,3.60
2019-06-19T19:39:03.600Z,3.53
2019-06-19T19:41:34.089Z,3.70
2019-06-19T19:44:03.963Z,5.20
2019-06-19T19:46:33.911Z,3.70
2019-06-19T19:49:03.550Z,4.07
2019-06-19T19:51:33.512Z,3.80
2019-06-19T19:54:03.196Z,4.60
2019-06-19T19:56:32.786Z,4.20
2019-06-19T19:59:02.411Z,4.27
2019-06-19T20:01:34.638Z,4.67
2019-06-19T20:04:04.327Z,4.87
2019-06-19T20:06:33.918Z,3.60
2019-06-19T20:09:03.522Z,4.00
2019-06-19T20:11:33.235Z,3.77
2019-06-19T20:14:03.570Z,4.33
2019-06-19T20:16:33.093Z,3.57
2019-06-19T20:19:02.821Z,4.03
2019-06-19T20:21:32.441Z,4.20
2019-06-19T20:24:03.354Z,3.70
2019-06-19T20:26:32.914Z,3.90
2019-06-19T20:29:04.294Z,4.80
2019-06-19T20:31:33.712Z,4.13
2019-06-19T20:34:03.346Z,4.83
2019-06-19T20:36:34.000Z,4.60
2019-06-19T20:39:15.443Z,5.00
2019-06-19T20:41:34.961Z,5.17
2019-06-19T20:44:05.079Z,5.43
2019-06-19T20:46:34.920Z,5.33
2019-06-19T20:49:04.631Z,4.23
2019-06-19T20:51:34.285Z,5.90
2019-06-19T20:54:04.033Z,4.10
2019-06-19T20:56:33.624Z,4.63
2019-06-19T20:59:15.417Z,4.90
2019-06-19T21:01:34.586Z,5.17
2019-06-19T21:04:06.188Z,4.93
2019-06-19T21:06:35.740Z,4.93
2019-06-19T21:09:08.818Z,5.37
2019-06-19T21:11:38.408Z,5.17
2019-06-19T21:14:10.298Z,5.23
2019-06-19T21:16:39.855Z,5.40
2019-06-19T21:19:09.376Z,5.30
2019-06-19T21:21:39.015Z,5.33
2019-06-19T21:24:08.571Z,5.80
2019-06-19T21:26:38.137Z,5.27
2019-06-19T21:29:07.674Z,5.10
2019-06-19T21:31:39.014Z,5.63
2019-06-19T21:34:09.331Z,4.97
2019-06-19T21:36:39.024Z,6.10
2019-06-19T21:39:08.903Z,5.33
2019-06-19T21:41:40.767Z,5.27
2019-06-19T21:44:18.847Z,4.90
2019-06-19T21:46:41.700Z,5.53
2019-06-19T21:49:11.687Z,5.47
2019-06-19T21:51:42.781Z,6.33
2019-06-19T21:54:12.307Z,5.33
2019-06-19T21:56:41.837Z,5.73
2019-06-19T21:59:11.471Z,6.00
2019-06-19T22:01:41.329Z,6.10
2019-06-19T22:04:10.995Z,6.33
2019-06-19T22:06:53.239Z,5.70
2019-06-19T22:09:22.744Z,6.03
2019-06-19T22:11:54.758Z,6.93
2019-06-19T22:14:23.829Z,6.40
2019-06-19T22:16:53.357Z,5.60
2019-06-19T22:19:22.954Z,5.47
2019-06-19T22:21:52.793Z,5.77
2019-06-19T22:24:22.438Z,4.23
2019-06-19T22:26:52.100Z,4.40
2019-06-19T22:29:22.103Z,4.80
2019-06-19T22:31:51.710Z,4.33
2019-06-19T22:34:21.424Z,4.00
2019-06-19T22:36:51.119Z,4.00
2019-06-19T22:39:20.849Z,4.07
2019-06-19T22:41:50.426Z,4.27
2019-06-19T22:44:20.526Z,3.17
2019-06-19T22:46:50.221Z,3.90
2019-06-19T22:49:19.886Z,3.70
2019-06-19T22:51:49.657Z,3.60
2019-06-19T22:54:19.309Z,3.77
2019-06-19T22:56:48.863Z,4.47
2019-06-19T22:59:18.889Z,3.50
2019-06-19T23:01:56.656Z,3.30
2019-06-19T23:04:26.245Z,3.43
2019-06-19T23:06:55.914Z,3.77
2019-06-19T23:09:25.567Z,5.60
2019-06-19T23:11:55.389Z,3.90
2019-06-19T23:14:24.930Z,4.63
2019-06-19T23:16:54.847Z,4.73
2019-06-19T23:19:24.408Z,4.80
2019-06-19T23:21:53.913Z,4.70
2019-06-19T23:24:23.415Z,4.47
2019-06-19T23:26:53.034Z,4.00
2019-06-19T23:29:22.562Z,4.10
2019-06-19T23:31:52.196Z,4.37
2019-06-19T23:34:21.778Z,4.30
2019-06-19T23:36:51.437Z,4.27
2019-06-19T23:39:20.954Z,4.87
2019-06-19T23:41:50.495Z,4.80
2019-06-19T23:44:21.565Z,5.20
2019-06-19T23:46:51.350Z,5.23
2019-06-19T23:49:20.905Z,5.20
2019-06-19T23:51:50.529Z,5.60
2019-06-19T23:54:20.168Z,6.10
2019-06-19T23:56:49.962Z,6.50
2019-06-19T23:59:19.458Z,6.67
